createdAt,value
2023-05-15T00:01:32.889Z,100510.06
2023-05-15T00:03:59.099Z,100488.00
2023-05-15T00:06:25.343Z,100475.91
2023-05-15T00:08:51.564Z,100459.34
2023-05-15T00:11:17.814Z,100437.03
2023-05-15T00:13:44.053Z,100435.16
2023-05-15T00:16:10.339Z,100421.78
2023-05-15T00:18:36.608Z,100421.28
2023-05-15T00:21:02.858Z,100408.41
2023-05-15T00:23:29.061Z,100410.31
2023-05-15T00:25:55.320Z,100408.22
2023-05-15T00:28:21.532Z,100432.44
2023-05-15T00:30:47.779Z,100434.25
2023-05-15T00:33:14.000Z,100418.25
2023-05-15T00:35:40.210Z,100411.94
2023-05-15T00:38:06.411Z,100401.72
2023-05-15T00:40:32.656Z,100406.50
2023-05-15T00:42:58.876Z,100420.41
2023-05-15T00:45:25.311Z,100410.22
2023-05-15T00:47:51.752Z,100406.03
2023-05-15T00:50:18.147Z,100393.19
2023-05-15T00:52:44.388Z,100390.56
2023-05-15T00:55:10.597Z,100406.94
2023-05-15T00:57:36.790Z,100452.63
2023-05-15T01:00:03.014Z,100429.19
2023-05-15T01:02:29.283Z,100424.31
2023-05-15T01:04:55.591Z,100449.75
2023-05-15T01:07:21.797Z,100431.09
2023-05-15T01:09:48.065Z,100418.47
2023-05-15T01:12:14.699Z,100469.72
2023-05-15T01:14:40.943Z,100462.88
2023-05-15T01:17:07.170Z,100409.41
2023-05-15T01:19:33.509Z,100414.16
2023-05-15T01:22:15.318Z,100491.78
2023-05-15T01:24:47.513Z,100452.94
2023-05-15T01:27:16.535Z,100445.06
2023-05-15T01:30:01.416Z,100446.13
2023-05-15T01:32:47.951Z,100418.88
2023-05-15T01:35:16.116Z,100526.13
2023-05-15T01:37:44.063Z,100493.88
2023-05-15T01:40:10.341Z,100448.25
2023-05-15T01:42:36.576Z,100398.16
2023-05-15T01:45:03.810Z,100368.53
2023-05-15T01:47:34.682Z,100458.72
2023-05-15T01:50:01.209Z,100570.63
2023-05-15T01:52:29.214Z,100517.22
2023-05-15T01:54:55.430Z,100476.56
2023-05-15T01:57:21.710Z,100421.75
2023-05-15T01:59:47.992Z,100433.59
2023-05-15T02:02:14.203Z,100409.47
2023-05-15T02:04:40.414Z,100411.56
2023-05-15T02:07:06.629Z,100420.47
2023-05-15T02:09:32.848Z,100479.94
2023-05-15T02:12:00.209Z,100503.03
2023-05-15T02:14:26.425Z,100491.50
2023-05-15T02:16:52.634Z,100512.44
2023-05-15T02:19:18.903Z,100493.81
2023-05-15T02:21:45.116Z,100468.94
2023-05-15T02:24:11.323Z,100444.03
2023-05-15T02:26:47.436Z,100673.50
2023-05-15T02:29:16.604Z,100860.38
2023-05-15T02:32:01.607Z,100961.06
2023-05-15T02:34:30.980Z,100901.81
2023-05-15T02:36:57.739Z,100769.06
2023-05-15T02:39:23.960Z,100632.06
2023-05-15T02:41:50.183Z,100513.44
2023-05-15T02:44:16.738Z,100437.78
2023-05-15T02:46:42.961Z,100568.06
2023-05-15T02:49:09.172Z,100793.66
2023-05-15T02:51:35.387Z,100903.31
2023-05-15T02:54:01.594Z,100823.38
2023-05-15T02:56:27.828Z,100693.97
2023-05-15T02:58:54.033Z,100565.16
2023-05-15T03:01:20.299Z,100549.13
2023-05-15T03:03:46.971Z,100495.31
2023-05-15T03:06:13.197Z,100406.84
2023-05-15T03:08:39.409Z,100391.13
2023-05-15T03:11:05.616Z,100334.03
2023-05-15T03:13:31.864Z,100298.41
2023-05-15T03:15:58.071Z,100315.47
2023-05-15T03:18:24.280Z,100321.19
2023-05-15T03:20:51.426Z,100316.75
2023-05-15T03:23:17.625Z,100300.75
2023-05-15T03:25:43.843Z,100269.84
2023-05-15T03:28:10.056Z,100264.84
2023-05-15T03:30:36.258Z,100545.97
2023-05-15T03:33:02.549Z,100601.28
2023-05-15T03:35:28.908Z,100500.34
2023-05-15T03:37:55.115Z,100399.25
2023-05-15T03:40:21.352Z,100378.06
2023-05-15T03:42:47.570Z,100350.53
2023-05-15T03:45:13.796Z,100279.53
2023-05-15T03:47:40.034Z,100255.91
2023-05-15T03:50:06.428Z,100229.41
2023-05-15T03:52:32.651Z,100243.56
2023-05-15T03:54:58.856Z,100469.97
2023-05-15T03:57:25.176Z,100421.03
2023-05-15T03:59:51.385Z,100362.28
2023-05-15T04:02:17.645Z,100476.03
2023-05-15T04:04:43.908Z,100633.69
2023-05-15T04:07:10.169Z,100593.41
2023-05-15T04:09:36.373Z,100587.13
2023-05-15T04:12:02.583Z,100457.19
2023-05-15T04:14:28.784Z,100409.72
2023-05-15T04:16:54.994Z,100429.38
2023-05-15T04:19:21.244Z,100598.69
2023-05-15T04:21:47.481Z,100663.13
2023-05-15T04:24:13.692Z,100665.78
2023-05-15T04:26:39.938Z,100637.22
2023-05-15T04:29:06.190Z,100560.19
2023-05-15T04:31:32.483Z,100568.31
2023-05-15T04:33:58.787Z,100584.81
2023-05-15T04:36:25.021Z,100580.91
2023-05-15T04:38:51.228Z,100608.94
2023-05-15T04:41:17.475Z,100624.69
2023-05-15T04:43:43.681Z,100623.41
2023-05-15T04:46:09.967Z,100618.41
2023-05-15T04:48:36.249Z,100646.50
2023-05-15T04:51:02.468Z,100607.66
2023-05-15T04:53:28.680Z,100599.28
2023-05-15T04:55:54.898Z,100570.41
2023-05-15T04:58:21.111Z,100535.50
2023-05-15T05:00:47.320Z,100503.66
2023-05-15T05:03:13.652Z,100451.66
2023-05-15T05:05:39.951Z,100466.28
2023-05-15T05:08:06.143Z,100289.63
2023-05-15T05:10:32.363Z,100217.56
2023-05-15T05:12:58.572Z,100215.78
2023-05-15T05:15:25.056Z,100194.56
2023-05-15T05:17:52.530Z,100190.97
2023-05-15T05:20:18.824Z,100280.47
2023-05-15T05:22:45.031Z,100112.72
2023-05-15T05:25:11.250Z,100084.16
2023-05-15T05:27:37.490Z,100094.81
2023-05-15T05:30:03.812Z,100180.50
2023-05-15T05:32:30.030Z,100133.06
2023-05-15T05:34:56.233Z,100057.59
2023-05-15T05:37:22.454Z,99948.47
2023-05-15T05:39:48.683Z,99791.34
2023-05-15T05:42:14.902Z,99684.13
2023-05-15T05:44:41.125Z,99572.56
2023-05-15T05:47:07.377Z,99509.88
2023-05-15T05:49:33.598Z,99242.09
2023-05-15T05:52:04.833Z,99176.72
2023-05-15T05:54:31.052Z,99222.63
2023-05-15T05:56:57.275Z,99234.84
2023-05-15T05:59:23.492Z,99153.81
2023-05-15T06:01:49.732Z,99442.19
2023-05-15T06:04:16.910Z,99596.19
2023-05-15T06:06:44.427Z,99555.78
2023-05-15T06:09:10.640Z,99470.72
2023-05-15T06:11:36.859Z,99566.41
2023-05-15T06:14:03.057Z,99630.38
2023-05-15T06:16:29.396Z,99479.72
2023-05-15T06:18:55.680Z,99673.75
2023-05-15T06:21:21.923Z,99778.25
2023-05-15T06:23:48.116Z,99899.41
2023-05-15T06:26:14.370Z,99924.66
2023-05-15T06:28:40.593Z,100145.25
2023-05-15T06:31:06.869Z,100231.84
2023-05-15T06:33:33.112Z,100277.44
2023-05-15T06:35:59.334Z,100299.53
2023-05-15T06:38:25.564Z,100243.84
2023-05-15T06:40:51.818Z,100324.47
2023-05-15T06:43:18.118Z,100359.31
2023-05-15T06:45:44.350Z,100438.00
2023-05-15T06:48:10.584Z,100335.03
2023-05-15T06:50:36.813Z,100312.41
2023-05-15T06:53:03.011Z,100276.97
2023-05-15T06:55:29.431Z,100208.84
2023-05-15T06:57:55.676Z,100237.00
2023-05-15T07:00:21.908Z,100273.22
2023-05-15T07:02:48.138Z,100313.91
2023-05-15T07:05:14.950Z,100355.88
2023-05-15T07:07:41.472Z,100367.47
2023-05-15T07:10:08.072Z,100315.59
2023-05-15T07:12:34.293Z,100366.97
2023-05-15T07:15:00.507Z,100354.78
2023-05-15T07:17:26.805Z,100343.50
2023-05-15T07:19:53.084Z,100345.25
2023-05-15T07:22:19.310Z,100409.28
2023-05-15T07:24:45.529Z,100430.31
2023-05-15T07:27:11.729Z,100320.59
2023-05-15T07:29:37.968Z,100332.09
2023-05-15T07:32:04.358Z,100176.50
2023-05-15T07:34:30.656Z,99858.06
2023-05-15T07:36:56.893Z,99739.13
2023-05-15T07:39:23.126Z,99878.13
2023-05-15T07:41:49.661Z,99775.84
2023-05-15T07:44:15.866Z,99857.59
2023-05-15T07:46:42.107Z,99645.75
2023-05-15T07:49:08.331Z,99811.97
2023-05-15T07:51:34.554Z,99837.19
2023-05-15T07:54:00.767Z,99581.34
2023-05-15T07:56:26.966Z,99328.44
2023-05-15T07:58:53.215Z,99421.91
2023-05-15T08:01:19.451Z,99255.75
2023-05-15T08:03:45.758Z,99229.31
2023-05-15T08:06:12.075Z,99360.81
2023-05-15T08:08:38.288Z,99237.16
2023-05-15T08:11:04.501Z,99371.50
2023-05-15T08:13:30.751Z,99333.00
2023-05-15T08:15:56.989Z,99248.94
2023-05-15T08:18:23.297Z,99213.00
2023-05-15T08:20:49.558Z,99329.63
2023-05-15T08:23:15.766Z,99382.91
2023-05-15T08:25:41.988Z,99634.22
2023-05-15T08:28:08.203Z,99644.66
2023-05-15T08:30:34.414Z,99911.13
2023-05-15T08:33:00.689Z,99869.56
2023-05-15T08:35:27.124Z,99683.47
2023-05-15T08:37:53.527Z,99381.75
2023-05-15T08:40:25.612Z,99394.59
2023-05-15T08:43:01.273Z,99282.72
2023-05-15T08:45:27.714Z,99031.03
2023-05-15T08:47:54.175Z,99397.59
2023-05-15T08:50:20.500Z,99089.16
2023-05-15T08:52:47.039Z,99020.56
2023-05-15T08:55:13.638Z,99238.09
2023-05-15T08:57:39.841Z,99304.09
2023-05-15T09:00:08.262Z,98852.81
2023-05-15T09:02:35.776Z,98677.75
2023-05-15T09:05:02.283Z,98605.47
2023-05-15T09:07:29.704Z,98562.19
2023-05-15T09:09:55.923Z,98650.91
2023-05-15T09:12:22.120Z,98764.47
2023-05-15T09:14:48.333Z,98355.22
2023-05-15T09:17:14.541Z,98248.94
2023-05-15T09:19:40.879Z,98510.91
2023-05-15T09:22:20.065Z,98359.38
2023-05-15T09:24:46.267Z,98319.50
2023-05-15T09:27:12.487Z,98536.78
2023-05-15T09:29:39.024Z,98827.06
2023-05-15T09:32:12.430Z,98464.56
2023-05-15T09:34:39.312Z,98674.19
2023-05-15T09:37:06.431Z,98639.00
2023-05-15T09:39:33.232Z,98701.84
2023-05-15T09:42:05.847Z,98999.53
2023-05-15T09:44:32.066Z,99015.38
2023-05-15T09:46:58.808Z,98621.16
2023-05-15T09:49:25.051Z,98481.34
2023-05-15T09:51:51.286Z,98547.81
2023-05-15T09:54:18.014Z,98534.19
2023-05-15T09:56:44.519Z,98969.59
2023-05-15T09:59:12.615Z,98628.34
2023-05-15T10:01:38.894Z,98587.38
2023-05-15T10:04:05.871Z,98455.09
2023-05-15T10:06:35.683Z,98622.53
2023-05-15T10:09:02.167Z,98845.06
2023-05-15T10:11:28.409Z,98726.94
2023-05-15T10:13:54.642Z,98750.59
2023-05-15T10:16:20.944Z,98777.16
2023-05-15T10:18:47.246Z,98751.19
2023-05-15T10:21:13.473Z,98879.19
2023-05-15T10:23:40.773Z,98988.03
2023-05-15T10:26:40.195Z,99303.75
2023-05-15T10:29:08.258Z,99361.00
2023-05-15T10:31:34.507Z,99246.16
2023-05-15T10:34:00.930Z,99131.19
2023-05-15T10:36:27.154Z,99325.41
2023-05-15T10:38:53.397Z,99159.03
2023-05-15T10:41:20.745Z,99057.16
2023-05-15T10:43:46.991Z,99178.63
2023-05-15T10:46:13.401Z,99185.50
2023-05-15T10:48:39.628Z,99156.22
2023-05-15T10:51:05.869Z,99145.50
2023-05-15T10:53:32.644Z,99101.78
2023-05-15T10:55:58.868Z,99225.84
2023-05-15T10:58:25.097Z,99032.47
2023-05-15T11:00:51.321Z,99319.88
2023-05-15T11:03:45.303Z,98976.63
2023-05-15T11:06:15.232Z,99136.91
2023-05-15T11:08:41.659Z,99454.84
2023-05-15T11:11:07.874Z,99443.66
2023-05-15T11:13:52.833Z,99433.78
2023-05-15T11:16:37.562Z,99436.38
2023-05-15T11:19:03.841Z,99534.09
2023-05-15T11:21:33.108Z,99308.19
2023-05-15T11:24:05.649Z,99605.22
2023-05-15T11:26:35.588Z,99400.84
2023-05-15T11:29:16.935Z,99371.34
2023-05-15T11:31:43.148Z,99491.03
2023-05-15T11:34:09.362Z,99565.03
2023-05-15T11:36:37.795Z,99541.88
2023-05-15T11:39:10.249Z,99717.38
2023-05-15T11:41:36.461Z,99712.19
2023-05-15T11:44:02.678Z,99463.28
2023-05-15T11:46:28.927Z,99521.28
2023-05-15T11:48:55.173Z,99378.31
2023-05-15T11:51:22.038Z,99547.91
2023-05-15T11:53:51.868Z,99566.63
2023-05-15T11:56:24.719Z,99477.50
2023-05-15T11:58:52.848Z,99511.59
2023-05-15T12:01:19.077Z,99298.66
2023-05-15T12:03:46.818Z,99428.91
2023-05-15T12:06:13.229Z,99273.94
2023-05-15T12:08:39.425Z,99329.41
2023-05-15T12:11:05.648Z,99253.66
2023-05-15T12:13:32.071Z,99265.31
2023-05-15T12:15:58.477Z,99340.91
2023-05-15T12:18:24.743Z,99076.16
2023-05-15T12:20:54.159Z,99060.78
2023-05-15T12:23:20.834Z,98923.78
2023-05-15T12:25:47.080Z,99022.53
2023-05-15T12:28:13.314Z,99069.38
2023-05-15T12:30:39.534Z,98825.63
2023-05-15T12:33:16.801Z,98704.59
2023-05-15T12:35:47.600Z,98578.88
2023-05-15T12:38:14.318Z,98897.34
2023-05-15T12:40:40.874Z,98684.66
2023-05-15T12:43:07.164Z,98735.84
2023-05-15T12:45:33.389Z,98619.00
2023-05-15T12:47:59.626Z,98721.97
2023-05-15T12:50:26.179Z,98764.94
2023-05-15T12:52:56.797Z,98762.28
2023-05-15T12:55:25.980Z,98705.13
2023-05-15T12:57:54.327Z,98644.47
2023-05-15T13:00:26.109Z,98714.53
2023-05-15T13:02:53.108Z,98655.41
2023-05-15T13:05:20.537Z,98799.31
2023-05-15T13:07:47.410Z,98692.25
2023-05-15T13:10:15.985Z,98676.38
2023-05-15T13:12:42.735Z,98529.47
2023-05-15T13:15:10.363Z,98457.53
2023-05-15T13:17:36.589Z,98656.22
2023-05-15T13:20:02.877Z,98490.38
2023-05-15T13:22:29.100Z,98699.13
2023-05-15T13:25:00.342Z,98768.72
2023-05-15T13:27:41.497Z,98758.25
2023-05-15T13:30:07.965Z,99055.00
2023-05-15T13:32:34.213Z,98622.19
2023-05-15T13:35:00.458Z,98691.38
2023-05-15T13:37:28.104Z,98669.97
2023-05-15T13:39:54.384Z,98460.94
2023-05-15T13:42:20.629Z,98388.88
2023-05-15T13:44:46.833Z,98558.47
2023-05-15T13:47:13.160Z,98431.00
2023-05-15T13:49:39.507Z,98567.00
2023-05-15T13:52:05.804Z,98502.47
2023-05-15T13:54:32.017Z,98547.38
2023-05-15T13:56:58.223Z,98699.50
2023-05-15T13:59:24.419Z,98701.25
2023-05-15T14:01:50.791Z,98422.03
2023-05-15T14:04:17.077Z,98507.31
2023-05-15T14:06:45.495Z,98652.91
2023-05-15T14:09:11.723Z,98450.78
2023-05-15T14:11:37.955Z,98520.53
2023-05-15T14:14:04.167Z,98480.38
2023-05-15T14:16:30.418Z,98401.09
2023-05-15T14:18:56.721Z,98460.31
2023-05-15T14:21:23.035Z,98552.50
2023-05-15T14:23:49.237Z,98563.63
2023-05-15T14:26:15.502Z,98469.84
2023-05-15T14:28:44.479Z,98443.31
2023-05-15T14:31:10.697Z,98306.66
2023-05-15T14:33:38.138Z,98388.63
2023-05-15T14:36:07.638Z,98355.19
2023-05-15T14:38:41.388Z,98239.81
2023-05-15T14:41:07.595Z,98325.53
2023-05-15T14:43:33.787Z,98552.91
2023-05-15T14:46:00.015Z,98387.47
2023-05-15T14:50:56.497Z,98364.94
2023-05-15T14:53:22.724Z,98637.84
2023-05-15T14:55:48.949Z,98409.72
2023-05-15T14:58:15.224Z,98440.50
2023-05-15T15:00:41.430Z,98400.16
2023-05-15T15:03:07.758Z,98394.81
2023-05-15T15:05:34.047Z,98410.31
2023-05-15T15:08:03.933Z,98600.84
2023-05-15T15:10:30.387Z,98617.22
2023-05-15T15:12:56.606Z,98544.34
2023-05-15T15:15:22.805Z,98496.47
2023-05-15T15:17:49.499Z,98463.84
2023-05-15T15:20:16.532Z,98548.22
2023-05-15T15:22:42.762Z,98532.75
2023-05-15T15:25:09.047Z,98707.25
2023-05-15T15:27:35.262Z,98414.56
2023-05-15T15:30:01.475Z,98449.09
2023-05-15T15:32:27.714Z,98649.25
2023-05-15T15:34:53.936Z,98670.97
2023-05-15T15:37:20.143Z,98682.25
2023-05-15T15:39:46.347Z,98659.25
2023-05-15T15:42:12.559Z,98639.22
2023-05-15T15:44:38.763Z,98666.50
2023-05-15T15:47:04.971Z,98568.91
2023-05-15T15:49:31.374Z,98566.53
2023-05-15T15:51:57.620Z,98418.09
2023-05-15T15:54:23.816Z,98375.00
2023-05-15T15:56:50.962Z,98277.47
2023-05-15T15:59:17.175Z,98325.34
2023-05-15T16:01:43.684Z,98264.31
2023-05-15T16:04:10.125Z,98200.72
2023-05-15T16:06:36.406Z,98189.72
2023-05-15T16:09:02.949Z,98204.50
2023-05-15T16:11:29.350Z,98272.00
2023-05-15T16:13:55.554Z,98198.09
2023-05-15T16:16:21.874Z,98303.00
2023-05-15T16:18:48.140Z,98428.03
2023-05-15T16:21:14.363Z,97988.81
2023-05-15T16:23:40.597Z,98038.38
2023-05-15T16:26:06.829Z,98221.66
2023-05-15T16:28:33.048Z,98213.69
2023-05-15T16:30:59.281Z,98310.41
2023-05-15T16:33:25.502Z,98281.22
2023-05-15T16:35:51.712Z,98356.25
2023-05-15T16:38:18.469Z,98602.25
2023-05-15T16:40:44.854Z,98517.41
2023-05-15T16:43:11.079Z,98504.13
2023-05-15T16:45:37.284Z,98565.94
2023-05-15T16:48:03.749Z,98636.09
2023-05-15T16:50:30.542Z,98457.41
2023-05-15T16:52:56.778Z,98721.81
2023-05-15T16:55:23.007Z,98801.72
2023-05-15T16:57:49.214Z,98864.56
2023-05-15T17:00:15.734Z,98767.41
2023-05-15T17:02:42.065Z,98914.00
2023-05-15T17:05:09.095Z,98761.59
2023-05-15T17:07:35.667Z,98785.75
2023-05-15T17:10:01.898Z,98783.19
2023-05-15T17:12:28.127Z,98574.22
2023-05-15T17:14:54.326Z,98487.84
2023-05-15T17:17:20.560Z,98581.41
2023-05-15T17:19:46.787Z,98546.38
2023-05-15T17:22:13.008Z,98659.69
2023-05-15T17:24:50.751Z,98497.50
2023-05-15T17:27:17.924Z,98622.50
2023-05-15T17:29:44.466Z,98778.06
2023-05-15T17:32:10.837Z,99041.25
2023-05-15T17:34:37.195Z,98851.53
2023-05-15T17:37:03.516Z,98945.16
2023-05-15T17:39:29.735Z,98956.41
2023-05-15T17:41:55.925Z,98988.69
2023-05-15T17:44:22.962Z,99122.94
2023-05-15T17:46:49.173Z,99155.91
2023-05-15T17:49:15.390Z,99174.69
2023-05-15T17:51:41.616Z,99279.13
2023-05-15T17:54:07.831Z,99451.31
2023-05-15T17:56:34.032Z,99543.25
2023-05-15T17:59:00.249Z,99524.41
2023-05-15T18:01:26.530Z,99531.63
2023-05-15T18:03:52.895Z,99769.47
2023-05-15T18:06:19.164Z,99873.31
2023-05-15T18:08:45.504Z,99723.59
2023-05-15T18:11:21.569Z,99728.75
2023-05-15T18:13:48.424Z,99773.66
2023-05-15T18:16:14.686Z,99773.81
2023-05-15T18:18:40.982Z,99836.41
2023-05-15T18:21:07.223Z,99953.59
2023-05-15T18:23:33.425Z,99905.28
2023-05-15T18:25:59.628Z,99924.53
2023-05-15T18:28:27.673Z,99986.75
2023-05-15T18:30:53.881Z,100026.09
2023-05-15T18:33:20.111Z,100057.66
2023-05-15T18:35:46.319Z,100075.22
2023-05-15T18:38:12.545Z,100126.47
2023-05-15T18:40:38.765Z,100161.56
2023-05-15T18:43:05.588Z,100125.75
2023-05-15T18:45:31.781Z,100148.59
2023-05-15T18:47:58.100Z,100199.25
2023-05-15T18:50:24.314Z,100233.22
2023-05-15T18:52:50.591Z,100235.84
2023-05-15T18:55:16.810Z,100261.78
2023-05-15T18:57:43.033Z,100266.28
2023-05-15T19:00:09.433Z,100277.59
2023-05-15T19:02:37.621Z,100264.72
2023-05-15T19:05:04.085Z,100241.44
2023-05-15T19:07:30.307Z,100243.94
2023-05-15T19:09:56.556Z,100269.69
2023-05-15T19:12:22.790Z,100280.00
2023-05-15T19:14:49.014Z,100320.69
2023-05-15T19:17:15.230Z,100263.28
2023-05-15T19:19:41.470Z,100253.72
2023-05-15T19:22:07.670Z,100230.88
2023-05-15T19:24:33.894Z,100267.63
2023-05-15T19:27:00.163Z,100273.03
2023-05-15T19:29:26.404Z,100262.25
2023-05-15T19:31:52.643Z,100291.56
2023-05-15T19:34:18.917Z,100317.22
2023-05-15T19:36:45.193Z,100311.06
2023-05-15T19:39:11.427Z,100312.03
2023-05-15T19:41:37.679Z,100335.16
2023-05-15T19:44:04.282Z,100321.06
2023-05-15T19:46:30.546Z,100376.94
2023-05-15T19:48:56.800Z,100352.88
2023-05-15T19:51:23.012Z,100320.31
2023-05-15T19:53:49.236Z,100313.78
2023-05-15T19:56:15.446Z,100324.75
2023-05-15T19:58:41.656Z,100337.16
2023-05-15T20:01:07.895Z,100310.19
2023-05-15T20:03:34.263Z,100380.91
2023-05-15T20:06:00.794Z,100400.06
2023-05-15T20:08:27.187Z,100391.66
2023-05-15T20:10:53.391Z,100432.78
2023-05-15T20:13:19.652Z,100443.06
2023-05-15T20:15:45.895Z,100422.25
2023-05-15T20:18:12.604Z,100431.72
2023-05-15T20:20:38.851Z,100467.31
2023-05-15T20:23:05.056Z,100470.09
2023-05-15T20:25:31.273Z,100478.44
2023-05-15T20:27:57.501Z,100444.66
2023-05-15T20:30:24.098Z,100390.06
2023-05-15T20:32:50.596Z,100407.31
2023-05-15T20:35:16.888Z,100424.97
2023-05-15T20:37:43.118Z,100488.63
2023-05-15T20:40:09.491Z,100482.81
2023-05-15T20:42:35.705Z,100484.84
2023-05-15T20:45:01.928Z,100478.97
2023-05-15T20:47:28.209Z,100421.63
2023-05-15T20:49:54.424Z,100469.53
2023-05-15T20:52:20.653Z,100484.47
2023-05-15T20:54:46.849Z,100472.09
2023-05-15T20:57:13.071Z,100448.63
2023-05-15T20:59:39.269Z,100424.47
2023-05-15T21:02:05.473Z,100423.41
2023-05-15T21:04:31.692Z,100439.03
2023-05-15T21:06:57.901Z,100444.31
2023-05-15T21:09:24.108Z,100436.69
2023-05-15T21:11:50.316Z,100449.84
2023-05-15T21:14:16.524Z,100445.03
2023-05-15T21:16:42.767Z,100449.66
2023-05-15T21:19:09.008Z,100469.66
2023-05-15T21:21:35.263Z,100449.91
2023-05-15T21:24:01.484Z,100448.19
2023-05-15T21:26:27.708Z,100461.13
2023-05-15T21:28:53.966Z,100476.31
2023-05-15T21:31:20.213Z,100452.97
2023-05-15T21:33:46.458Z,100460.84
2023-05-15T21:36:12.681Z,100443.16
2023-05-15T21:38:38.880Z,100436.63
2023-05-15T21:41:05.097Z,100432.03
2023-05-15T21:43:31.307Z,100442.09
2023-05-15T21:45:57.565Z,100453.28
2023-05-15T21:48:23.790Z,100426.50
2023-05-15T21:50:50.008Z,100440.41
2023-05-15T21:53:16.206Z,100426.88
2023-05-15T21:55:42.413Z,100434.97
2023-05-15T21:58:08.605Z,100427.69
2023-05-15T22:00:34.839Z,100429.78
2023-05-15T22:03:01.184Z,100409.47
2023-05-15T22:05:27.573Z,100392.59
2023-05-15T22:07:53.806Z,100380.88
2023-05-15T22:10:20.049Z,100384.50
2023-05-15T22:12:46.276Z,100371.28
2023-05-15T22:15:12.501Z,100356.16
2023-05-15T22:17:38.753Z,100367.19
2023-05-15T22:20:05.223Z,100377.16
2023-05-15T22:22:31.431Z,100387.94
2023-05-15T22:24:57.624Z,100384.50
2023-05-15T22:27:23.847Z,100389.47
2023-05-15T22:29:50.083Z,100380.22
2023-05-15T22:32:16.303Z,100365.94
2023-05-15T22:34:42.548Z,100352.16
2023-05-15T22:37:08.760Z,100358.00
2023-05-15T22:39:34.963Z,100379.78
2023-05-15T22:42:01.205Z,100362.44
2023-05-15T22:44:27.401Z,100360.63
2023-05-15T22:46:53.623Z,100352.03
2023-05-15T22:49:19.824Z,100346.78
2023-05-15T22:51:46.043Z,100335.59
2023-05-15T22:54:12.258Z,100322.13
2023-05-15T22:56:38.470Z,100301.38
2023-05-15T22:59:04.795Z,100289.50
2023-05-15T23:01:31.205Z,100268.81
2023-05-15T23:03:57.542Z,100277.81
2023-05-15T23:06:23.801Z,100294.88
2023-05-15T23:08:50.006Z,100298.03
2023-05-15T23:11:16.301Z,100290.41
2023-05-15T23:13:42.503Z,100302.78
2023-05-15T23:16:08.759Z,100317.25
2023-05-15T23:18:35.016Z,100287.16
2023-05-15T23:21:01.268Z,100286.56
2023-05-15T23:23:27.468Z,100271.19
2023-05-15T23:25:53.688Z,100257.97
2023-05-15T23:28:19.879Z,100228.94
2023-05-15T23:30:46.157Z,100219.69
2023-05-15T23:33:12.398Z,100202.41
2023-05-15T23:35:38.621Z,100233.22
2023-05-15T23:38:04.833Z,100258.06
2023-05-15T23:40:31.039Z,100263.44
2023-05-15T23:42:57.241Z,100293.00
2023-05-15T23:45:23.517Z,100296.25
2023-05-15T23:47:49.734Z,100313.47
2023-05-15T23:50:15.948Z,100294.63
2023-05-15T23:52:42.141Z,100289.38
2023-05-15T23:55:08.485Z,100297.53
2023-05-15T23:57:34.691Z,100288.09
